sensor_id;sensor_type;location;lat;lon;timestamp;pressure;altitude;pressure_sealevel;temperature;humidity
62928;BME280;51070;52.236;-0.892;2023-05-07T00:01:47;100447.24;;;13.96;100.00
62928;BME280;51070;52.236;-0.892;2023-05-07T00:04:13;100449.66;;;13.96;100.00
62928;BME280;51070;52.236;-0.892;2023-05-07T00:06:39;100447.74;;;13.95;100.00
62928;BME280;51070;52.236;-0.892;2023-05-07T00:09:05;100447.71;;;13.92;100.00
62928;BME280;51070;52.236;-0.892;2023-05-07T00:11:31;100448.72;;;13.90;100.00
62928;BME280;51070;52.236;-0.892;2023-05-07T00:13:57;100448.68;;;13.87;100.00
62928;BME280;51070;52.236;-0.892;2023-05-07T00:16:23;100442.77;;;13.86;100.00
62928;BME280;51070;52.236;-0.892;2023-05-07T00:18:48;100446.42;;;13.86;100.00
62928;BME280;51070;52.236;-0.892;2023-05-07T00:21:13;100445.36;;;13.85;100.00
62928;BME280;51070;52.236;-0.892;2023-05-07T00:23:39;100445.90;;;13.86;100.00
62928;BME280;51070;52.236;-0.892;2023-05-07T00:26:04;100440.82;;;13.84;100.00
62928;BME280;51070;52.236;-0.892;2023-05-07T00:28:30;100438.41;;;13.85;100.00
62928;BME280;51070;52.236;-0.892;2023-05-07T00:30:55;100440.52;;;13.86;100.00
62928;BME280;51070;52.236;-0.892;2023-05-07T00:33:22;100437.73;;;13.86;100.00
62928;BME280;51070;52.236;-0.892;2023-05-07T00:35:48;100439.12;;;13.86;100.00
62928;BME280;51070;52.236;-0.892;2023-05-07T00:38:13;100437.35;;;13.84;100.00
62928;BME280;51070;52.236;-0.892;2023-05-07T00:40:39;100442.92;;;13.85;100.00
62928;BME280;51070;52.236;-0.892;2023-05-07T00:43:04;100441.67;;;13.84;100.00
62928;BME280;51070;52.236;-0.892;2023-05-07T00:45:30;100443.23;;;13.84;100.00
62928;BME280;51070;52.236;-0.892;2023-05-07T00:47:57;100441.86;;;13.84;100.00
62928;BME280;51070;52.236;-0.892;2023-05-07T00:50:23;100439.96;;;13.85;100.00
62928;BME280;51070;52.236;-0.892;2023-05-07T00:52:49;100440.81;;;13.84;100.00
62928;BME280;51070;52.236;-0.892;2023-05-07T00:55:15;100436.50;;;13.85;100.00
62928;BME280;51070;52.236;-0.892;2023-05-07T00:57:41;100438.25;;;13.86;100.00
62928;BME280;51070;52.236;-0.892;2023-05-07T01:00:08;100432.80;;;13.82;100.00
62928;BME280;51070;52.236;-0.892;2023-05-07T01:02:38;100437.84;;;13.83;100.00
62928;BME280;51070;52.236;-0.892;2023-05-07T01:05:04;100438.52;;;13.83;100.00
62928;BME280;51070;52.236;-0.892;2023-05-07T01:07:31;100437.43;;;13.78;100.00
62928;BME280;51070;52.236;-0.892;2023-05-07T01:09:58;100439.14;;;13.75;100.00
62928;BME280;51070;52.236;-0.892;2023-05-07T01:12:24;100438.97;;;13.75;100.00
62928;BME280;51070;52.236;-0.892;2023-05-07T01:14:50;100439.84;;;13.76;100.00
62928;BME280;51070;52.236;-0.892;2023-05-07T01:17:17;100438.10;;;13.77;100.00
62928;BME280;51070;52.236;-0.892;2023-05-07T01:19:42;100439.52;;;13.78;100.00
62928;BME280;51070;52.236;-0.892;2023-05-07T01:22:10;100436.27;;;13.81;100.00
62928;BME280;51070;52.236;-0.892;2023-05-07T01:24:40;100438.52;;;13.82;100.00
62928;BME280;51070;52.236;-0.892;2023-05-07T01:27:05;100435.23;;;13.82;100.00
62928;BME280;51070;52.236;-0.892;2023-05-07T01:29:31;100439.91;;;13.82;100.00
62928;BME280;51070;52.236;-0.892;2023-05-07T01:31:59;100438.85;;;13.80;100.00
62928;BME280;51070;52.236;-0.892;2023-05-07T01:34:25;100438.46;;;13.78;100.00
62928;BME280;51070;52.236;-0.892;2023-05-07T01:36:54;100440.36;;;13.77;100.00
62928;BME280;51070;52.236;-0.892;2023-05-07T01:39:30;100443.02;;;13.79;100.00
62928;BME280;51070;52.236;-0.892;2023-05-07T01:41:56;100442.23;;;13.85;100.00
62928;BME280;51070;52.236;-0.892;2023-05-07T01:44:25;100443.52;;;13.90;100.00
62928;BME280;51070;52.236;-0.892;2023-05-07T01:46:51;100443.54;;;13.92;100.00
62928;BME280;51070;52.236;-0.892;2023-05-07T01:49:16;100445.65;;;13.95;100.00
62928;BME280;51070;52.236;-0.892;2023-05-07T01:51:43;100447.09;;;13.98;100.00
62928;BME280;51070;52.236;-0.892;2023-05-07T01:54:09;100447.30;;;14.01;100.00
62928;BME280;51070;52.236;-0.892;2023-05-07T01:56:35;100449.79;;;14.04;100.00
62928;BME280;51070;52.236;-0.892;2023-05-07T01:59:00;100450.14;;;14.05;100.00
62928;BME280;51070;52.236;-0.892;2023-05-07T02:01:27;100452.61;;;14.07;100.00
62928;BME280;51070;52.236;-0.892;2023-05-07T02:03:53;100453.30;;;14.06;100.00
62928;BME280;51070;52.236;-0.892;2023-05-07T02:06:19;100456.39;;;14.05;100.00
62928;BME280;51070;52.236;-0.892;2023-05-07T02:08:45;100458.46;;;14.03;100.00
62928;BME280;51070;52.236;-0.892;2023-05-07T02:11:11;100458.59;;;14.00;100.00
62928;BME280;51070;52.236;-0.892;2023-05-07T02:13:37;100460.29;;;13.97;100.00
62928;BME280;51070;52.236;-0.892;2023-05-07T02:16:02;100459.05;;;13.96;100.00
62928;BME280;51070;52.236;-0.892;2023-05-07T02:18:28;100463.58;;;13.96;100.00
62928;BME280;51070;52.236;-0.892;2023-05-07T02:20:54;100466.02;;;13.97;100.00
62928;BME280;51070;52.236;-0.892;2023-05-07T02:23:19;100469.33;;;13.97;100.00
62928;BME280;51070;52.236;-0.892;2023-05-07T02:25:45;100468.43;;;13.96;100.00
62928;BME280;51070;52.236;-0.892;2023-05-07T02:28:11;100474.52;;;13.96;100.00
62928;BME280;51070;52.236;-0.892;2023-05-07T02:30:38;100477.13;;;13.96;100.00
62928;BME280;51070;52.236;-0.892;2023-05-07T02:33:04;100475.59;;;13.98;100.00
62928;BME280;51070;52.236;-0.892;2023-05-07T02:35:29;100476.45;;;13.99;100.00
62928;BME280;51070;52.236;-0.892;2023-05-07T02:37:55;100477.15;;;13.99;100.00
62928;BME280;51070;52.236;-0.892;2023-05-07T02:40:20;100479.73;;;13.97;100.00
62928;BME280;51070;52.236;-0.892;2023-05-07T02:42:46;100480.73;;;13.94;100.00
62928;BME280;51070;52.236;-0.892;2023-05-07T02:45:11;100485.54;;;13.90;100.00
62928;BME280;51070;52.236;-0.892;2023-05-07T02:47:36;100486.19;;;13.86;100.00
62928;BME280;51070;52.236;-0.892;2023-05-07T02:50:03;100487.55;;;13.85;100.00
62928;BME280;51070;52.236;-0.892;2023-05-07T02:52:29;100490.96;;;13.81;100.00
62928;BME280;51070;52.236;-0.892;2023-05-07T02:54:54;100495.44;;;13.78;100.00
62928;BME280;51070;52.236;-0.892;2023-05-07T02:57:20;100497.14;;;13.75;100.00
62928;BME280;51070;52.236;-0.892;2023-05-07T02:59:45;100498.98;;;13.71;100.00
62928;BME280;51070;52.236;-0.892;2023-05-07T03:02:10;100498.77;;;13.69;100.00
62928;BME280;51070;52.236;-0.892;2023-05-07T03:04:36;100503.23;;;13.66;100.00
62928;BME280;51070;52.236;-0.892;2023-05-07T03:07:01;100500.95;;;13.64;100.00
62928;BME280;51070;52.236;-0.892;2023-05-07T03:09:26;100499.88;;;13.62;100.00
62928;BME280;51070;52.236;-0.892;2023-05-07T03:11:52;100501.96;;;13.63;100.00
62928;BME280;51070;52.236;-0.892;2023-05-07T03:14:17;100502.02;;;13.65;100.00
62928;BME280;51070;52.236;-0.892;2023-05-07T03:16:42;100503.29;;;13.69;100.00
62928;BME280;51070;52.236;-0.892;2023-05-07T03:19:08;100505.55;;;13.70;100.00
62928;BME280;51070;52.236;-0.892;2023-05-07T03:21:33;100506.68;;;13.76;100.00
62928;BME280;51070;52.236;-0.892;2023-05-07T03:24:00;100502.58;;;13.79;100.00
62928;BME280;51070;52.236;-0.892;2023-05-07T03:26:25;100507.81;;;13.80;100.00
62928;BME280;51070;52.236;-0.892;2023-05-07T03:28:51;100507.83;;;13.82;100.00
62928;BME280;51070;52.236;-0.892;2023-05-07T03:31:17;100508.35;;;13.82;100.00
62928;BME280;51070;52.236;-0.892;2023-05-07T03:33:56;100513.91;;;13.81;100.00
62928;BME280;51070;52.236;-0.892;2023-05-07T03:36:22;100517.73;;;13.82;100.00
62928;BME280;51070;52.236;-0.892;2023-05-07T03:38:49;100514.45;;;13.84;100.00
62928;BME280;51070;52.236;-0.892;2023-05-07T03:41:15;100516.37;;;13.84;100.00
62928;BME280;51070;52.236;-0.892;2023-05-07T03:43:40;100518.23;;;13.80;100.00
62928;BME280;51070;52.236;-0.892;2023-05-07T03:46:06;100523.59;;;13.79;100.00
62928;BME280;51070;52.236;-0.892;2023-05-07T03:48:31;100522.89;;;13.79;100.00
62928;BME280;51070;52.236;-0.892;2023-05-07T03:50:58;100525.52;;;13.81;100.00
62928;BME280;51070;52.236;-0.892;2023-05-07T03:53:23;100523.13;;;13.83;100.00
62928;BME280;51070;52.236;-0.892;2023-05-07T03:55:49;100524.06;;;13.86;100.00
62928;BME280;51070;52.236;-0.892;2023-05-07T03:58:15;100523.79;;;13.92;100.00
62928;BME280;51070;52.236;-0.892;2023-05-07T04:00:41;100522.82;;;13.97;100.00
62928;BME280;51070;52.236;-0.892;2023-05-07T04:03:07;100526.39;;;14.03;100.00
62928;BME280;51070;52.236;-0.892;2023-05-07T04:05:32;100527.16;;;14.08;100.00
62928;BME280;51070;52.236;-0.892;2023-05-07T04:07:58;100527.08;;;14.14;100.00
62928;BME280;51070;52.236;-0.892;2023-05-07T04:10:24;100531.66;;;14.19;100.00
62928;BME280;51070;52.236;-0.892;2023-05-07T04:12:50;100533.64;;;14.23;100.00
62928;BME280;51070;52.236;-0.892;2023-05-07T04:15:16;100532.11;;;14.25;100.00
62928;BME280;51070;52.236;-0.892;2023-05-07T04:17:41;100530.55;;;14.27;100.00
62928;BME280;51070;52.236;-0.892;2023-05-07T04:20:09;100535.60;;;14.26;100.00
62928;BME280;51070;52.236;-0.892;2023-05-07T04:22:36;100534.19;;;14.26;100.00
62928;BME280;51070;52.236;-0.892;2023-05-07T04:25:02;100537.66;;;14.26;100.00
62928;BME280;51070;52.236;-0.892;2023-05-07T04:27:27;100531.83;;;14.30;100.00
62928;BME280;51070;52.236;-0.892;2023-05-07T04:29:53;100533.81;;;14.35;100.00
62928;BME280;51070;52.236;-0.892;2023-05-07T04:32:21;100533.34;;;14.37;100.00
62928;BME280;51070;52.236;-0.892;2023-05-07T04:34:47;100534.77;;;14.40;100.00
62928;BME280;51070;52.236;-0.892;2023-05-07T04:37:12;100539.00;;;14.43;100.00
62928;BME280;51070;52.236;-0.892;2023-05-07T04:39:38;100543.55;;;14.45;100.00
62928;BME280;51070;52.236;-0.892;2023-05-07T04:42:03;100552.42;;;14.47;100.00
62928;BME280;51070;52.236;-0.892;2023-05-07T04:44:28;100550.02;;;14.48;100.00
62928;BME280;51070;52.236;-0.892;2023-05-07T04:46:56;100553.83;;;14.48;100.00
62928;BME280;51070;52.236;-0.892;2023-05-07T04:49:21;100552.95;;;14.47;100.00
62928;BME280;51070;52.236;-0.892;2023-05-07T04:51:47;100553.48;;;14.47;100.00
62928;BME280;51070;52.236;-0.892;2023-05-07T04:54:12;100557.29;;;14.47;100.00
62928;BME280;51070;52.236;-0.892;2023-05-07T04:56:38;100559.05;;;14.48;100.00
62928;BME280;51070;52.236;-0.892;2023-05-07T04:59:03;100557.86;;;14.50;100.00
62928;BME280;51070;52.236;-0.892;2023-05-07T05:01:28;100555.45;;;14.52;100.00
62928;BME280;51070;52.236;-0.892;2023-05-07T05:03:54;100558.12;;;14.55;100.00
62928;BME280;51070;52.236;-0.892;2023-05-07T05:06:19;100559.20;;;14.58;100.00
62928;BME280;51070;52.236;-0.892;2023-05-07T05:08:44;100557.33;;;14.61;100.00
62928;BME280;51070;52.236;-0.892;2023-05-07T05:11:10;100561.00;;;14.64;100.00
62928;BME280;51070;52.236;-0.892;2023-05-07T05:13:35;100564.34;;;14.66;100.00
62928;BME280;51070;52.236;-0.892;2023-05-07T05:16:01;100566.45;;;14.67;100.00
62928;BME280;51070;52.236;-0.892;2023-05-07T05:18:26;100570.50;;;14.71;100.00
62928;BME280;51070;52.236;-0.892;2023-05-07T05:20:51;100576.98;;;14.75;100.00
62928;BME280;51070;52.236;-0.892;2023-05-07T05:23:19;100578.79;;;14.80;100.00
62928;BME280;51070;52.236;-0.892;2023-05-07T05:25:45;100577.10;;;14.84;100.00
62928;BME280;51070;52.236;-0.892;2023-05-07T05:28:10;100579.73;;;14.86;100.00
62928;BME280;51070;52.236;-0.892;2023-05-07T05:30:35;100587.02;;;14.86;100.00
62928;BME280;51070;52.236;-0.892;2023-05-07T05:33:01;100589.98;;;14.86;100.00
62928;BME280;51070;52.236;-0.892;2023-05-07T05:35:26;100590.86;;;14.86;100.00
62928;BME280;51070;52.236;-0.892;2023-05-07T05:37:52;100595.55;;;14.86;100.00
62928;BME280;51070;52.236;-0.892;2023-05-07T05:40:17;100598.50;;;14.85;100.00
62928;BME280;51070;52.236;-0.892;2023-05-07T05:42:43;100608.59;;;14.85;100.00
62928;BME280;51070;52.236;-0.892;2023-05-07T05:45:09;100616.81;;;14.87;100.00
62928;BME280;51070;52.236;-0.892;2023-05-07T05:47:34;100622.88;;;14.85;100.00
62928;BME280;51070;52.236;-0.892;2023-05-07T05:50:00;100627.23;;;14.86;100.00
62928;BME280;51070;52.236;-0.892;2023-05-07T05:52:25;100632.67;;;14.89;100.00
62928;BME280;51070;52.236;-0.892;2023-05-07T05:54:50;100634.06;;;14.90;100.00
62928;BME280;51070;52.236;-0.892;2023-05-07T05:57:16;100637.96;;;14.96;100.00
62928;BME280;51070;52.236;-0.892;2023-05-07T05:59:42;100640.11;;;15.00;100.00
62928;BME280;51070;52.236;-0.892;2023-05-07T06:02:07;100641.05;;;15.05;100.00
62928;BME280;51070;52.236;-0.892;2023-05-07T06:04:33;100642.08;;;15.17;100.00
62928;BME280;51070;52.236;-0.892;2023-05-07T06:06:58;100644.63;;;15.41;99.95
62928;BME280;51070;52.236;-0.892;2023-05-07T06:09:23;100649.08;;;15.64;98.13
62928;BME280;51070;52.236;-0.892;2023-05-07T06:11:49;100644.56;;;15.82;97.96
62928;BME280;51070;52.236;-0.892;2023-05-07T06:14:14;100644.17;;;15.97;97.23
62928;BME280;51070;52.236;-0.892;2023-05-07T06:16:40;100647.41;;;16.08;95.53
62928;BME280;51070;52.236;-0.892;2023-05-07T06:19:05;100649.27;;;16.21;94.19
62928;BME280;51070;52.236;-0.892;2023-05-07T06:21:30;100652.89;;;16.40;92.75
62928;BME280;51070;52.236;-0.892;2023-05-07T06:23:56;100654.96;;;16.38;92.37
62928;BME280;51070;52.236;-0.892;2023-05-07T06:26:21;100660.14;;;16.29;91.56
62928;BME280;51070;52.236;-0.892;2023-05-07T06:28:47;100663.85;;;16.16;91.12
62928;BME280;51070;52.236;-0.892;2023-05-07T06:33:38;100670.59;;;15.89;91.37
62928;BME280;51070;52.236;-0.892;2023-05-07T06:36:04;100675.02;;;15.79;91.85
62928;BME280;51070;52.236;-0.892;2023-05-07T06:38:30;100673.79;;;15.76;92.23
62928;BME280;51070;52.236;-0.892;2023-05-07T06:40:55;100668.89;;;15.77;91.67
62928;BME280;51070;52.236;-0.892;2023-05-07T06:43:22;100671.56;;;15.99;91.26
62928;BME280;51070;52.236;-0.892;2023-05-07T06:45:48;100670.93;;;16.27;90.18
62928;BME280;51070;52.236;-0.892;2023-05-07T06:48:13;100668.15;;;17.59;87.38
62928;BME280;51070;52.236;-0.892;2023-05-07T06:50:38;100667.94;;;19.63;81.03
62928;BME280;51070;52.236;-0.892;2023-05-07T06:53:04;100662.80;;;21.57;74.45
62928;BME280;51070;52.236;-0.892;2023-05-07T06:55:29;100666.18;;;23.33;68.35
62928;BME280;51070;52.236;-0.892;2023-05-07T06:57:54;100662.04;;;24.57;63.48
62928;BME280;51070;52.236;-0.892;2023-05-07T07:00:20;100662.21;;;25.98;59.02
62928;BME280;51070;52.236;-0.892;2023-05-07T07:02:45;100660.91;;;27.18;55.74
62928;BME280;51070;52.236;-0.892;2023-05-07T07:05:11;100664.73;;;28.37;52.32
62928;BME280;51070;52.236;-0.892;2023-05-07T07:07:36;100663.46;;;29.62;49.59
62928;BME280;51070;52.236;-0.892;2023-05-07T07:10:02;100666.69;;;30.59;46.56
62928;BME280;51070;52.236;-0.892;2023-05-07T07:12:29;100669.65;;;30.57;45.29
62928;BME280;51070;52.236;-0.892;2023-05-07T07:14:55;100674.10;;;29.70;45.14
62928;BME280;51070;52.236;-0.892;2023-05-07T07:17:20;100682.35;;;28.45;45.58
62928;BME280;51070;52.236;-0.892;2023-05-07T07:19:46;100685.21;;;27.18;47.33
62928;BME280;51070;52.236;-0.892;2023-05-07T07:22:11;100683.04;;;26.00;48.39
62928;BME280;51070;52.236;-0.892;2023-05-07T07:24:36;100685.40;;;25.09;50.00
62928;BME280;51070;52.236;-0.892;2023-05-07T07:27:02;100685.91;;;24.77;50.57
62928;BME280;51070;52.236;-0.892;2023-05-07T07:29:27;100692.63;;;24.57;50.91
62928;BME280;51070;52.236;-0.892;2023-05-07T07:31:53;100696.73;;;24.12;51.54
62928;BME280;51070;52.236;-0.892;2023-05-07T07:34:18;100702.77;;;23.87;51.70
62928;BME280;51070;52.236;-0.892;2023-05-07T07:36:43;100706.48;;;23.55;52.84
62928;BME280;51070;52.236;-0.892;2023-05-07T07:39:09;100701.38;;;23.45;53.26
62928;BME280;51070;52.236;-0.892;2023-05-07T07:41:34;100696.80;;;23.09;54.04
62928;BME280;51070;52.236;-0.892;2023-05-07T07:44:00;100695.47;;;22.46;54.74
62928;BME280;51070;52.236;-0.892;2023-05-07T07:46:25;100697.31;;;21.82;56.06
62928;BME280;51070;52.236;-0.892;2023-05-07T07:48:51;100699.92;;;21.32;57.01
62928;BME280;51070;52.236;-0.892;2023-05-07T07:51:17;100698.78;;;20.89;58.18
62928;BME280;51070;52.236;-0.892;2023-05-07T07:53:42;100704.09;;;20.67;58.94
62928;BME280;51070;52.236;-0.892;2023-05-07T07:56:08;100707.73;;;21.20;58.66
62928;BME280;51070;52.236;-0.892;2023-05-07T07:58:34;100702.81;;;22.80;55.68
62928;BME280;51070;52.236;-0.892;2023-05-07T08:01:00;100705.90;;;22.75;55.61
62928;BME280;51070;52.236;-0.892;2023-05-07T08:03:26;100708.08;;;24.06;53.65
62928;BME280;51070;52.236;-0.892;2023-05-07T08:05:52;100704.17;;;25.82;50.48
62928;BME280;51070;52.236;-0.892;2023-05-07T08:08:18;100703.95;;;25.53;49.97
62928;BME280;51070;52.236;-0.892;2023-05-07T08:10:43;100707.47;;;24.71;50.46
62928;BME280;51070;52.236;-0.892;2023-05-07T08:13:09;100719.04;;;23.78;51.78
62928;BME280;51070;52.236;-0.892;2023-05-07T08:15:35;100719.89;;;23.00;53.21
62928;BME280;51070;52.236;-0.892;2023-05-07T08:18:02;100726.58;;;22.39;54.51
62928;BME280;51070;52.236;-0.892;2023-05-07T08:20:28;100725.31;;;21.94;55.30
62928;BME280;51070;52.236;-0.892;2023-05-07T08:22:54;100730.14;;;21.61;56.07
62928;BME280;51070;52.236;-0.892;2023-05-07T08:25:19;100731.80;;;21.40;56.75
62928;BME280;51070;52.236;-0.892;2023-05-07T08:27:45;100733.77;;;21.23;56.71
62928;BME280;51070;52.236;-0.892;2023-05-07T08:30:11;100734.08;;;21.08;56.91
62928;BME280;51070;52.236;-0.892;2023-05-07T08:32:36;100734.08;;;20.90;57.52
62928;BME280;51070;52.236;-0.892;2023-05-07T08:35:02;100740.20;;;20.74;57.86
62928;BME280;51070;52.236;-0.892;2023-05-07T08:37:27;100742.27;;;20.59;58.50
62928;BME280;51070;52.236;-0.892;2023-05-07T08:39:53;100752.39;;;20.44;59.27
62928;BME280;51070;52.236;-0.892;2023-05-07T08:42:19;100758.82;;;20.25;59.74
62928;BME280;51070;52.236;-0.892;2023-05-07T08:44:46;100759.65;;;20.03;60.23
62928;BME280;51070;52.236;-0.892;2023-05-07T08:47:14;100763.64;;;19.81;60.81
62928;BME280;51070;52.236;-0.892;2023-05-07T08:49:39;100764.96;;;19.56;61.61
62928;BME280;51070;52.236;-0.892;2023-05-07T08:52:05;100762.55;;;19.40;62.59
62928;BME280;51070;52.236;-0.892;2023-05-07T08:54:31;100759.92;;;19.41;63.04
62928;BME280;51070;52.236;-0.892;2023-05-07T08:56:57;100755.06;;;20.06;62.53
62928;BME280;51070;52.236;-0.892;2023-05-07T08:59:22;100752.77;;;21.19;61.11
62928;BME280;51070;52.236;-0.892;2023-05-07T09:01:48;100745.08;;;22.25;59.00
62928;BME280;51070;52.236;-0.892;2023-05-07T09:04:13;100747.09;;;22.88;57.24
62928;BME280;51070;52.236;-0.892;2023-05-07T09:06:39;100749.52;;;22.78;56.36
62928;BME280;51070;52.236;-0.892;2023-05-07T09:09:07;100749.56;;;22.55;56.09
62928;BME280;51070;52.236;-0.892;2023-05-07T09:11:33;100755.03;;;22.32;56.42
62928;BME280;51070;52.236;-0.892;2023-05-07T09:13:58;100760.70;;;22.29;56.54
62928;BME280;51070;52.236;-0.892;2023-05-07T09:16:28;100760.91;;;22.39;56.03
62928;BME280;51070;52.236;-0.892;2023-05-07T09:18:56;100753.00;;;22.60;56.02
62928;BME280;51070;52.236;-0.892;2023-05-07T09:21:22;100760.57;;;22.82;55.19
62928;BME280;51070;52.236;-0.892;2023-05-07T09:23:52;100766.98;;;22.78;54.43
62928;BME280;51070;52.236;-0.892;2023-05-07T09:26:18;100769.00;;;22.39;54.71
62928;BME280;51070;52.236;-0.892;2023-05-07T09:28:44;100770.64;;;21.99;55.75
62928;BME280;51070;52.236;-0.892;2023-05-07T09:31:11;100777.85;;;21.56;56.46
62928;BME280;51070;52.236;-0.892;2023-05-07T09:33:37;100776.89;;;21.16;56.91
62928;BME280;51070;52.236;-0.892;2023-05-07T09:36:04;100782.05;;;20.87;57.56
62928;BME280;51070;52.236;-0.892;2023-05-07T09:38:31;100783.85;;;20.62;57.70
62928;BME280;51070;52.236;-0.892;2023-05-07T09:43:32;100784.76;;;20.81;58.45
62928;BME280;51070;52.236;-0.892;2023-05-07T09:46:03;100787.12;;;21.11;58.09
62928;BME280;51070;52.236;-0.892;2023-05-07T09:48:29;100786.73;;;21.16;57.12
62928;BME280;51070;52.236;-0.892;2023-05-07T09:50:56;100791.45;;;20.97;56.93
62928;BME280;51070;52.236;-0.892;2023-05-07T09:53:25;100797.10;;;20.74;57.42
62928;BME280;51070;52.236;-0.892;2023-05-07T09:55:51;100799.41;;;20.49;57.94
62928;BME280;51070;52.236;-0.892;2023-05-07T09:58:18;100800.77;;;20.23;58.41
62928;BME280;51070;52.236;-0.892;2023-05-07T10:00:44;100801.11;;;19.96;58.84
62928;BME280;51070;52.236;-0.892;2023-05-07T10:03:11;100802.07;;;19.75;59.53
62928;BME280;51070;52.236;-0.892;2023-05-07T10:05:38;100806.30;;;19.65;60.19
62928;BME280;51070;52.236;-0.892;2023-05-07T10:08:05;100804.94;;;19.57;59.97
62928;BME280;51070;52.236;-0.892;2023-05-07T10:10:32;100808.44;;;19.55;60.38
62928;BME280;51070;52.236;-0.892;2023-05-07T10:12:59;100809.14;;;19.59;60.30
62928;BME280;51070;52.236;-0.892;2023-05-07T10:15:24;100815.77;;;19.66;60.52
62928;BME280;51070;52.236;-0.892;2023-05-07T10:17:51;100816.81;;;19.69;60.44
62928;BME280;51070;52.236;-0.892;2023-05-07T10:20:18;100817.48;;;19.76;60.42
62928;BME280;51070;52.236;-0.892;2023-05-07T10:22:46;100823.23;;;19.88;60.21
62928;BME280;51070;52.236;-0.892;2023-05-07T10:25:20;100825.08;;;20.03;59.93
62928;BME280;51070;52.236;-0.892;2023-05-07T10:27:49;100829.72;;;20.24;59.75
62928;BME280;51070;52.236;-0.892;2023-05-07T10:30:30;100834.61;;;20.60;58.98
62928;BME280;51070;52.236;-0.892;2023-05-07T10:33:03;100838.14;;;21.03;58.55
62928;BME280;51070;52.236;-0.892;2023-05-07T10:35:36;100839.56;;;21.24;57.61
62928;BME280;51070;52.236;-0.892;2023-05-07T10:38:03;100843.69;;;21.33;57.17
62928;BME280;51070;52.236;-0.892;2023-05-07T10:40:30;100840.97;;;21.41;56.84
62928;BME280;51070;52.236;-0.892;2023-05-07T10:42:58;100842.32;;;21.46;56.74
62928;BME280;51070;52.236;-0.892;2023-05-07T10:45:28;100844.60;;;21.46;55.95
62928;BME280;51070;52.236;-0.892;2023-05-07T10:48:08;100845.10;;;21.31;56.24
62928;BME280;51070;52.236;-0.892;2023-05-07T10:50:34;100848.73;;;21.18;56.91
62928;BME280;51070;52.236;-0.892;2023-05-07T10:55:48;100852.52;;;20.83;57.19
62928;BME280;51070;52.236;-0.892;2023-05-07T10:58:27;100855.04;;;20.77;57.37
62928;BME280;51070;52.236;-0.892;2023-05-07T11:00:58;100858.60;;;20.91;57.57
62928;BME280;51070;52.236;-0.892;2023-05-07T11:03:24;100858.48;;;21.30;56.88
62928;BME280;51070;52.236;-0.892;2023-05-07T11:06:23;100854.89;;;21.55;56.38
62928;BME280;51070;52.236;-0.892;2023-05-07T11:08:56;100857.42;;;21.79;56.42
62928;BME280;51070;52.236;-0.892;2023-05-07T11:11:44;100855.18;;;21.91;54.83
62928;BME280;51070;52.236;-0.892;2023-05-07T11:14:10;100851.09;;;22.23;54.47
62928;BME280;51070;52.236;-0.892;2023-05-07T11:16:36;100854.80;;;22.71;54.46
62928;BME280;51070;52.236;-0.892;2023-05-07T11:19:03;100853.52;;;23.18;52.44
62928;BME280;51070;52.236;-0.892;2023-05-07T11:21:32;100852.54;;;23.24;52.25
62928;BME280;51070;52.236;-0.892;2023-05-07T11:23:59;100855.81;;;23.18;51.80
62928;BME280;51070;52.236;-0.892;2023-05-07T11:26:25;100852.16;;;23.15;51.44
62928;BME280;51070;52.236;-0.892;2023-05-07T11:28:52;100853.52;;;23.09;51.45
62928;BME280;51070;52.236;-0.892;2023-05-07T11:31:23;100859.26;;;22.92;51.29
62928;BME280;51070;52.236;-0.892;2023-05-07T11:33:49;100860.90;;;22.65;51.17
62928;BME280;51070;52.236;-0.892;2023-05-07T11:36:15;100858.41;;;22.42;50.96
62928;BME280;51070;52.236;-0.892;2023-05-07T11:38:40;100856.41;;;22.33;51.09
62928;BME280;51070;52.236;-0.892;2023-05-07T11:41:07;100856.55;;;22.23;51.35
62928;BME280;51070;52.236;-0.892;2023-05-07T11:43:33;100859.77;;;22.20;50.86
62928;BME280;51070;52.236;-0.892;2023-05-07T11:46:11;100863.09;;;22.07;50.58
62928;BME280;51070;52.236;-0.892;2023-05-07T11:48:37;100865.88;;;21.95;50.24
62928;BME280;51070;52.236;-0.892;2023-05-07T11:51:04;100870.88;;;22.04;50.44
62928;BME280;51070;52.236;-0.892;2023-05-07T11:53:39;100867.08;;;22.39;50.61
62928;BME280;51070;52.236;-0.892;2023-05-07T11:56:10;100869.13;;;22.68;49.62
62928;BME280;51070;52.236;-0.892;2023-05-07T11:58:36;100870.27;;;22.86;49.26
62928;BME280;51070;52.236;-0.892;2023-05-07T12:01:02;100870.98;;;22.87;49.01
62928;BME280;51070;52.236;-0.892;2023-05-07T12:03:28;100870.63;;;22.74;49.28
62928;BME280;51070;52.236;-0.892;2023-05-07T12:05:53;100870.92;;;22.77;49.40
62928;BME280;51070;52.236;-0.892;2023-05-07T12:08:21;100872.80;;;23.14;48.76
62928;BME280;51070;52.236;-0.892;2023-05-07T12:10:50;100873.45;;;23.57;48.79
62928;BME280;51070;52.236;-0.892;2023-05-07T12:13:17;100871.83;;;23.96;47.88
62928;BME280;51070;52.236;-0.892;2023-05-07T12:15:43;100866.73;;;24.03;47.50
62928;BME280;51070;52.236;-0.892;2023-05-07T12:18:09;100865.82;;;23.97;47.61
62928;BME280;51070;52.236;-0.892;2023-05-07T12:20:36;100867.89;;;24.07;47.62
62928;BME280;51070;52.236;-0.892;2023-05-07T12:23:02;100864.77;;;24.13;47.18
62928;BME280;51070;52.236;-0.892;2023-05-07T12:25:35;100873.72;;;24.41;46.65
62928;BME280;51070;52.236;-0.892;2023-05-07T12:28:05;100871.52;;;24.52;45.23
62928;BME280;51070;52.236;-0.892;2023-05-07T12:30:40;100875.57;;;24.45;45.27
62928;BME280;51070;52.236;-0.892;2023-05-07T12:33:09;100873.98;;;24.45;45.39
62928;BME280;51070;52.236;-0.892;2023-05-07T12:35:42;100877.54;;;24.52;45.10
62928;BME280;51070;52.236;-0.892;2023-05-07T12:38:09;100878.88;;;24.39;45.14
62928;BME280;51070;52.236;-0.892;2023-05-07T12:40:40;100876.98;;;24.37;45.37